Time;durP1;ratioP1;P1;durP2;ratioP2;P2;SDS_P1;SDS_P2;PMS_P1;PMS_P2;Temp;Humidity;BMP_temperature;BMP_pressure;BME280_temperature;BME280_humidity;BME280_pressure;Samples;Min_cycle;Max_cycle;Signal;HPM_P1;HPM_P2
2022/11/01 00:00:06;;;;;;;25.42;10.88;;;;;;;;;;2107092;28;20044;-44
2022/11/01 00:01:08;;;;;;;25.00;11.43;;;;;;;;;;2107019;28;20501;-44
2022/11/01 00:02:09;;;;;;;24.27;13.63;;;;;;;;;;2106754;28;20044;-44
2022/11/01 00:03:10;;;;;;;26.95;13.65;;;;;;;;;;2107051;28;20047;-44
2022/11/01 00:04:11;;;;;;;24.23;10.40;;;;;;;;;;2106853;28;20067;-43
2022/11/01 00:05:12;;;;;;;22.35;11.52;;;;;;;;;;2106978;28;20048;-44
2022/11/01 00:06:13;;;;;;;21.77;10.93;;;;;;;;;;2106879;28;20044;-44
2022/11/01 00:07:14;;;;;;;24.38;13.15;;;;;;;;;;2107063;28;20496;-44
2022/11/01 00:08:15;;;;;;;26.88;11.68;;;;;;;;;;2107367;28;20085;-41
2022/11/01 00:09:16;;;;;;;23.77;12.65;;;;;;;;;;2106999;28;20044;-41
2022/11/01 00:10:18;;;;;;;21.67;11.75;;;;;;;;;;2107042;28;20056;-41
2022/11/01 00:11:19;;;;;;;18.23;10.13;;;;;;;;;;2106746;28;20048;-41
2022/11/01 00:12:20;;;;;;;25.63;12.65;;;;;;;;;;2106898;28;20504;-41
2022/11/01 00:13:21;;;;;;;20.30;10.35;;;;;;;;;;2107046;28;20043;-41
2022/11/01 00:14:22;;;;;;;20.95;10.05;;;;;;;;;;2106925;28;20048;-41
2022/11/01 00:15:23;;;;;;;20.98;11.35;;;;;;;;;;2106839;28;20112;-41
2022/11/01 00:16:24;;;;;;;24.02;11.75;;;;;;;;;;2106804;28;20055;-41
2022/11/01 00:17:25;;;;;;;23.70;9.40;;;;;;;;;;2106864;28;20102;-41
2022/11/01 00:18:26;;;;;;;19.85;10.50;;;;;;;;;;2106788;28;20647;-41
2022/11/01 00:19:28;;;;;;;20.90;11.27;;;;;;;;;;2106874;28;20054;-41
2022/11/01 00:20:29;;;;;;;22.95;11.52;;;;;;;;;;2106929;28;20040;-41
2022/11/01 00:21:30;;;;;;;22.17;10.73;;;;;;;;;;2106892;28;20048;-42
2022/11/01 00:22:31;;;;;;;24.98;12.23;;;;;;;;;;2106690;28;20409;-41
2022/11/01 00:23:32;;;;;;;20.63;9.63;;;;;;;;;;2106958;28;20134;-41
2022/11/01 00:24:33;;;;;;;21.52;9.25;;;;;;;;;;2106814;28;20044;-41
2022/11/01 00:25:36;;;;;;;22.52;12.57;;;;;;;;;;2106938;28;20055;-41
2022/11/01 00:26:37;;;;;;;20.42;10.50;;;;;;;;;;2106630;28;20051;-41
2022/11/01 00:27:38;;;;;;;26.38;10.73;;;;;;;;;;2106932;28;20127;-41
2022/11/01 00:28:39;;;;;;;19.50;10.45;;;;;;;;;;2107147;28;20043;-41
2022/11/01 00:29:40;;;;;;;16.83;8.65;;;;;;;;;;2106708;28;20054;-41
2022/11/01 00:30:41;;;;;;;17.58;9.82;;;;;;;;;;2106856;28;20048;-41
2022/11/01 00:31:42;;;;;;;20.45;10.20;;;;;;;;;;2106670;28;20452;-41
2022/11/01 00:32:43;;;;;;;22.85;9.32;;;;;;;;;;2106504;28;20481;-41
2022/11/01 00:33:44;;;;;;;21.58;11.07;;;;;;;;;;2106684;28;20047;-41
2022/11/01 00:34:45;;;;;;;21.27;10.13;;;;;;;;;;2106856;28;20079;-41
2022/11/01 00:35:47;;;;;;;17.05;7.80;;;;;;;;;;2106559;28;20075;-41
2022/11/01 00:36:48;;;;;;;16.90;8.93;;;;;;;;;;2106794;28;20079;-41
2022/11/01 00:37:49;;;;;;;15.82;7.63;;;;;;;;;;2106766;28;20050;-41
2022/11/01 00:38:51;;;;;;;16.80;9.00;;;;;;;;;;2106827;28;20089;-41
2022/11/01 00:39:52;;;;;;;15.48;6.75;;;;;;;;;;2106763;28;20105;-41
2022/11/01 00:40:53;;;;;;;14.50;8.05;;;;;;;;;;2106660;28;20477;-41
2022/11/01 00:41:55;;;;;;;15.15;8.10;;;;;;;;;;2106622;28;20047;-41
2022/11/01 00:42:55;;;;;;;13.43;5.40;;;;;;;;;;2106658;28;20625;-41
2022/11/01 00:43:57;;;;;;;16.08;6.97;;;;;;;;;;2106701;28;20048;-41
2022/11/01 00:44:58;;;;;;;13.60;5.32;;;;;;;;;;2106637;28;20055;-41
2022/11/01 00:46:00;;;;;;;17.63;6.97;;;;;;;;;;2106720;28;20055;-41
2022/11/01 00:47:00;;;;;;;12.05;4.78;;;;;;;;;;2106837;28;20374;-41
2022/11/01 00:48:02;;;;;;;15.43;6.72;;;;;;;;;;2106675;28;20055;-41
2022/11/01 00:49:04;;;;;;;12.20;4.82;;;;;;;;;;2106826;28;20394;-43
2022/11/01 00:50:05;;;;;;;11.52;5.75;;;;;;;;;;2106648;28;20405;-44
2022/11/01 00:51:06;;;;;;;9.52;5.30;;;;;;;;;;2106554;28;20877;-44
2022/11/01 00:52:07;;;;;;;12.75;6.07;;;;;;;;;;2106590;28;20071;-44
2022/11/01 00:53:10;;;;;;;12.38;5.35;;;;;;;;;;2106720;28;20496;-44
2022/11/01 00:54:11;;;;;;;11.85;6.25;;;;;;;;;;2106683;28;20055;-44
2022/11/01 00:55:12;;;;;;;10.15;4.95;;;;;;;;;;2106613;28;20400;-43
2022/11/01 00:56:13;;;;;;;15.27;6.22;;;;;;;;;;2106495;28;20048;-43
2022/11/01 00:57:15;;;;;;;12.73;4.82;;;;;;;;;;2106630;28;20051;-44
2022/11/01 00:58:15;;;;;;;11.50;5.68;;;;;;;;;;2106491;28;20121;-43
2022/11/01 00:59:17;;;;;;;11.97;5.40;;;;;;;;;;2106709;28;20070;-44
2022/11/01 01:00:18;;;;;;;11.65;6.00;;;;;;;;;;2106588;28;20043;-44
2022/11/01 01:01:19;;;;;;;10.85;5.28;;;;;;;;;;2106636;28;20048;-43
2022/11/01 01:02:20;;;;;;;14.13;6.55;;;;;;;;;;2106480;28;20101;-43
2022/11/01 01:03:21;;;;;;;12.52;5.40;;;;;;;;;;2106599;28;20501;-44
2022/11/01 01:04:22;;;;;;;11.48;5.57;;;;;;;;;;2106610;28;20104;-43
2022/11/01 01:05:23;;;;;;;10.52;4.60;;;;;;;;;;2106108;28;20096;-44
2022/11/01 01:06:24;;;;;;;12.82;5.90;;;;;;;;;;2106352;28;20044;-43
2022/11/01 01:07:25;;;;;;;11.02;4.82;;;;;;;;;;2106480;28;20075;-43
2022/11/01 01:08:27;;;;;;;11.70;6.63;;;;;;;;;;2106641;28;20051;-44
2022/11/01 01:09:28;;;;;;;12.43;5.95;;;;;;;;;;2106533;28;20056;-43
2022/11/01 01:10:29;;;;;;;10.32;4.93;;;;;;;;;;2106627;28;20044;-44
2022/11/01 01:11:30;;;;;;;13.43;7.10;;;;;;;;;;2106457;28;20139;-43
2022/11/01 01:12:31;;;;;;;13.70;5.28;;;;;;;;;;2106822;28;20048;-43
2022/11/01 01:13:33;;;;;;;11.17;4.87;;;;;;;;;;2106596;28;20048;-43
2022/11/01 01:14:34;;;;;;;13.70;6.55;;;;;;;;;;2106620;28;20291;-44
2022/11/01 01:15:36;;;;;;;13.45;5.97;;;;;;;;;;2106578;28;20097;-44
2022/11/01 01:16:37;;;;;;;13.20;5.68;;;;;;;;;;2106570;28;20414;-44
2022/11/01 01:17:39;;;;;;;12.75;4.95;;;;;;;;;;2106548;28;20072;-43
2022/11/01 01:18:40;;;;;;;13.95;6.32;;;;;;;;;;2106445;28;20047;-43
2022/11/01 01:19:41;;;;;;;15.35;7.40;;;;;;;;;;2106360;28;20048;-43
2022/11/01 01:20:42;;;;;;;11.20;5.28;;;;;;;;;;2106616;28;20037;-44
2022/11/01 01:21:43;;;;;;;11.00;5.88;;;;;;;;;;2106449;28;20079;-43
2022/11/01 01:22:44;;;;;;;17.58;7.38;;;;;;;;;;2106389;28;20044;-44
2022/11/01 01:23:47;;;;;;;14.83;7.60;;;;;;;;;;2106570;28;20040;-44
2022/11/01 01:24:48;;;;;;;13.77;6.30;;;;;;;;;;2106675;28;20047;-44
2022/11/01 01:25:49;;;;;;;13.00;6.93;;;;;;;;;;2106431;28;20040;-43
2022/11/01 01:26:51;;;;;;;14.30;5.95;;;;;;;;;;2106367;28;20473;-43
2022/11/01 01:27:52;;;;;;;15.25;7.35;;;;;;;;;;2106518;28;20097;-43
2022/11/01 01:28:53;;;;;;;16.25;7.15;;;;;;;;;;2106498;28;20048;-43
2022/11/01 01:29:54;;;;;;;17.75;6.60;;;;;;;;;;2106326;28;20040;-43
2022/11/01 01:30:55;;;;;;;17.50;8.90;;;;;;;;;;2106425;28;20040;-44
2022/11/01 01:31:56;;;;;;;18.73;7.95;;;;;;;;;;2106367;28;20094;-44
2022/11/01 01:32:57;;;;;;;18.60;7.82;;;;;;;;;;2106366;28;20048;-43
2022/11/01 01:33:58;;;;;;;30.13;12.90;;;;;;;;;;2106335;28;20097;-44
2022/11/01 01:34:59;;;;;;;28.77;11.02;;;;;;;;;;2106359;28;20508;-43
2022/11/01 01:36:00;;;;;;;36.35;14.82;;;;;;;;;;2106073;28;20130;-43
2022/11/01 01:37:01;;;;;;;32.00;11.27;;;;;;;;;;2106342;28;20048;-43
2022/11/01 01:38:02;;;;;;;31.25;11.27;;;;;;;;;;2106289;28;20052;-43
2022/11/01 01:39:04;;;;;;;30.40;11.60;;;;;;;;;;2106319;28;20040;-43
2022/11/01 01:40:07;;;;;;;31.60;13.10;;;;;;;;;;2106539;28;20170;-43
2022/11/01 01:42:29;;;;;;;26.35;10.07;;;;;;;;;;2106840;28;20060;-41
2022/11/01 01:43:39;;;;;;;27.80;12.90;;;;;;;;;;2106256;28;20048;-41
2022/11/01 01:45:13;;;;;;;33.58;11.15;;;;;;;;;;2106288;28;20447;-41
2022/11/01 01:46:14;;;;;;;37.28;12.48;;;;;;;;;;2106345;28;20055;-41
2022/11/01 01:47:17;;;;;;;26.42;11.27;;;;;;;;;;2106337;28;20052;-41
2022/11/01 01:48:21;;;;;;;27.63;9.23;;;;;;;;;;2106211;28;20489;-41
2022/11/01 01:49:22;;;;;;;22.27;11.63;;;;;;;;;;2106226;28;20382;-41
2022/11/01 01:50:25;;;;;;;24.63;10.45;;;;;;;;;;2106183;28;20443;-41
2022/11/01 01:51:27;;;;;;;20.92;9.52;;;;;;;;;;2106193;28;20452;-41
2022/11/01 01:52:30;;;;;;;25.45;11.70;;;;;;;;;;2106170;28;20040;-41
2022/11/01 01:53:33;;;;;;;24.48;10.90;;;;;;;;;;2106201;28;20493;-41
2022/11/01 01:54:34;;;;;;;27.63;10.70;;;;;;;;;;2106230;28;20048;-41
2022/11/01 01:55:37;;;;;;;26.80;13.20;;;;;;;;;;2106359;28;20463;-41
2022/11/01 01:56:38;;;;;;;25.13;10.07;;;;;;;;;;2106289;28;20069;-41
2022/11/01 01:57:40;;;;;;;30.73;11.70;;;;;;;;;;2106373;28;20489;-41
2022/11/01 01:58:43;;;;;;;26.55;12.43;;;;;;;;;;2106236;28;20040;-41
2022/11/01 01:59:45;;;;;;;31.08;13.45;;;;;;;;;;2106185;28;20047;-41
2022/11/01 02:00:46;;;;;;;25.88;10.52;;;;;;;;;;2106140;28;20054;-41
2022/11/01 02:01:47;;;;;;;23.85;9.95;;;;;;;;;;2106278;28;20040;-41
2022/11/01 02:02:49;;;;;;;25.20;12.10;;;;;;;;;;2106153;28;20044;-41
2022/11/01 02:03:50;;;;;;;25.50;9.75;;;;;;;;;;2106096;28;20280;-41
2022/11/01 02:04:54;;;;;;;25.58;10.02;;;;;;;;;;2106424;28;20048;-41
2022/11/01 02:05:57;;;;;;;30.95;10.68;;;;;;;;;;2106202;28;20047;-41
2022/11/01 02:06:59;;;;;;;29.35;12.30;;;;;;;;;;2106266;28;20051;-41
2022/11/01 02:08:01;;;;;;;28.50;11.90;;;;;;;;;;2106328;28;20051;-43
2022/11/01 02:09:03;;;;;;;25.83;10.30;;;;;;;;;;2106176;28;20051;-43
2022/11/01 02:10:05;;;;;;;25.80;11.30;;;;;;;;;;2106150;28;20470;-43
2022/11/01 02:11:07;;;;;;;28.42;12.57;;;;;;;;;;2106216;28;20047;-44
2022/11/01 02:12:08;;;;;;;;;;;;;;;;;;2106533;28;20056;-43
2022/11/01 02:13:13;;;;;;;23.27;8.93;;;;;;;;;;2106203;28;19920;-43
2022/11/01 02:14:15;;;;;;;20.40;10.20;;;;;;;;;;2106364;28;20047;-44
2022/11/01 02:15:17;;;;;;;28.50;13.38;;;;;;;;;;2106093;28;20302;-43
2022/11/01 02:16:33;;;;;;;26.40;9.68;;;;;;;;;;2106079;28;20048;-43
2022/11/01 02:17:38;;;;;;;26.98;9.90;;;;;;;;;;2084308;28;20040;-43
2022/11/01 02:18:43;;;;;;;24.60;12.10;;;;;;;;;;2106094;28;20489;-43
2022/11/01 02:19:58;;;;;;;27.08;11.95;;;;;;;;;;2106258;28;20394;-41
2022/11/01 02:21:20;;;;;;;26.10;11.75;;;;;;;;;;2106376;28;20048;-41
2022/11/01 02:22:24;;;;;;;24.27;8.85;;;;;;;;;;2097937;28;20051;-41
2022/11/01 02:23:42;;;;;;;25.83;12.60;;;;;;;;;;2105896;28;20048;-41
2022/11/01 02:25:00;;;;;;;21.42;10.52;;;;;;;;;;2106044;28;20040;-41
2022/11/01 02:26:11;;;;;;;23.40;10.15;;;;;;;;;;2106031;28;20052;-41
2022/11/01 02:27:27;;;;;;;28.15;11.60;;;;;;;;;;2106001;28;20481;-41
2022/11/01 02:28:42;;;;;;;25.05;11.23;;;;;;;;;;2102243;28;20465;-41
2022/11/01 02:29:58;;;;;;;24.33;11.93;;;;;;;;;;2106003;28;20481;-41
2022/11/01 02:31:07;;;;;;;22.08;11.02;;;;;;;;;;2101834;28;20450;-41
2022/11/01 02:32:16;;;;;;;27.65;12.85;;;;;;;;;;2106000;28;20381;-41
2022/11/01 02:33:26;;;;;;;23.15;11.73;;;;;;;;;;2106117;28;20048;-41
2022/11/01 02:34:30;;;;;;;29.88;11.43;;;;;;;;;;2106121;28;20044;-40
2022/11/01 02:35:41;;;;;;;20.85;10.30;;;;;;;;;;2106073;28;20073;-41
2022/11/01 02:36:45;;;;;;;26.25;11.63;;;;;;;;;;2105846;28;20055;-41
2022/11/01 02:37:51;;;;;;;26.17;10.75;;;;;;;;;;2106085;28;20047;-41
2022/11/01 02:38:54;;;;;;;25.83;11.23;;;;;;;;;;2106004;28;20055;-41
2022/11/01 02:39:59;;;;;;;25.27;11.60;;;;;;;;;;2106084;28;20047;-40
2022/11/01 02:41:02;;;;;;;24.60;12.25;;;;;;;;;;2105958;28;20048;-40
2022/11/01 02:42:06;;;;;;;31.25;12.80;;;;;;;;;;2105832;28;20059;-40
2022/11/01 02:43:11;;;;;;;27.23;12.80;;;;;;;;;;2105961;28;20055;-40
2022/11/01 02:44:15;;;;;;;26.63;13.68;;;;;;;;;;2105902;28;20089;-40
2022/11/01 02:45:27;;;;;;;27.67;13.35;;;;;;;;;;2105982;28;20063;-41
2022/11/01 02:47:52;;;;;;;22.23;9.85;;;;;;;;;;2105989;28;20048;-43
2022/11/01 02:48:53;;;;;;;28.05;14.20;;;;;;;;;;2106004;28;20036;-43
2022/11/01 02:49:58;;;;;;;27.08;11.93;;;;;;;;;;2105989;28;20040;-43
2022/11/01 02:50:59;;;;;;;24.33;10.18;;;;;;;;;;2105749;28;20044;-43
2022/11/01 02:52:01;;;;;;;23.45;10.55;;;;;;;;;;2106037;28;20491;-43
2022/11/01 02:53:02;;;;;;;;;;;;;;;;;;2106288;28;20074;-43
2022/11/01 02:54:05;;;;;;;21.00;9.00;;;;;;;;;;2105802;28;19955;-43
2022/11/01 02:55:28;;;;;;;26.73;12.57;;;;;;;;;;2105844;28;20228;-43
2022/11/01 02:56:29;;;;;;;25.33;11.32;;;;;;;;;;2105911;28;20044;-43
2022/11/01 02:57:33;;;;;;;20.70;10.48;;;;;;;;;;2105861;28;20078;-43
2022/11/01 02:58:34;;;;;;;27.20;12.65;;;;;;;;;;2105847;28;20052;-43
2022/11/01 02:59:42;;;;;;;25.15;9.57;;;;;;;;;;2105843;28;20044;-43
2022/11/01 03:00:44;;;;;;;25.92;10.80;;;;;;;;;;2105958;28;20040;-43
2022/11/01 03:01:49;;;;;;;21.63;11.65;;;;;;;;;;2105803;28;20040;-43
2022/11/01 03:02:52;;;;;;;22.83;10.15;;;;;;;;;;2105806;28;20040;-43
2022/11/01 03:03:55;;;;;;;20.63;9.13;;;;;;;;;;2105818;28;20059;-43
2022/11/01 03:04:56;;;;;;;21.85;9.48;;;;;;;;;;2105942;28;20052;-43
2022/11/01 03:06:01;;;;;;;23.85;9.38;;;;;;;;;;2105644;28;20048;-43
2022/11/01 03:07:04;;;;;;;17.75;9.05;;;;;;;;;;2105750;28;20401;-43
2022/11/01 03:08:07;;;;;;;17.77;8.80;;;;;;;;;;2105911;28;20071;-43
2022/11/01 03:09:10;;;;;;;17.73;8.45;;;;;;;;;;2105705;28;20072;-43
2022/11/01 03:10:11;;;;;;;19.50;8.30;;;;;;;;;;2105884;28;20048;-43
2022/11/01 03:11:14;;;;;;;22.73;9.40;;;;;;;;;;2105679;28;20490;-43
2022/11/01 03:12:19;;;;;;;18.33;9.52;;;;;;;;;;2105990;28;20048;-43
2022/11/01 03:13:28;;;;;;;16.67;8.85;;;;;;;;;;2105690;28;20546;-43
2022/11/01 03:14:31;;;;;;;17.80;9.10;;;;;;;;;;2105890;28;20052;-43
2022/11/01 03:15:38;;;;;;;19.85;9.70;;;;;;;;;;2105682;28;20485;-43
2022/11/01 03:16:43;;;;;;;16.05;9.02;;;;;;;;;;2105807;28;20048;-43
2022/11/01 03:17:47;;;;;;;18.45;8.02;;;;;;;;;;2106054;28;20040;-43
2022/11/01 03:18:55;;;;;;;16.92;7.70;;;;;;;;;;2105845;28;20044;-43
2022/11/01 03:19:59;;;;;;;18.88;9.82;;;;;;;;;;2105710;28;20048;-42
2022/11/01 03:21:14;;;;;;;17.52;8.57;;;;;;;;;;2105763;28;20048;-43
2022/11/01 03:22:16;;;;;;;17.83;8.93;;;;;;;;;;2105820;28;20059;-43
2022/11/01 03:23:20;;;;;;;14.75;9.15;;;;;;;;;;2105618;28;20075;-43
2022/11/01 03:24:23;;;;;;;21.70;10.73;;;;;;;;;;2105663;28;20098;-43
2022/11/01 03:25:39;;;;;;;21.17;10.93;;;;;;;;;;2105759;28;20048;-43
2022/11/01 03:26:42;;;;;;;23.77;12.10;;;;;;;;;;2105610;28;20585;-43
2022/11/01 03:27:43;;;;;;;20.17;9.38;;;;;;;;;;2106228;28;20063;-43
2022/11/01 03:28:45;;;;;;;23.77;11.95;;;;;;;;;;2106126;28;20055;-44
2022/11/01 03:29:46;;;;;;;;;;;;;;;;;;2107601;28;20079;-43
2022/11/01 03:30:49;;;;;;;19.17;8.20;;;;;;;;;;2107255;28;19971;-43
2022/11/01 03:31:52;;;;;;;16.58;8.45;;;;;;;;;;2107111;28;20507;-43
2022/11/01 03:32:55;;;;;;;20.20;10.38;;;;;;;;;;2107186;28;20054;-43
2022/11/01 03:33:58;;;;;;;17.80;8.30;;;;;;;;;;2107162;28;20040;-43
2022/11/01 03:35:00;;;;;;;22.33;9.85;;;;;;;;;;2107238;28;20097;-43
2022/11/01 03:36:03;;;;;;;21.10;8.90;;;;;;;;;;2106807;28;20059;-44
2022/11/01 03:37:06;;;;;;;18.95;9.80;;;;;;;;;;2107218;28;20052;-43
2022/11/01 03:38:09;;;;;;;19.48;9.25;;;;;;;;;;2107305;28;20052;-41
2022/11/01 03:39:13;;;;;;;24.00;9.82;;;;;;;;;;2107197;28;20098;-41
2022/11/01 03:40:15;;;;;;;19.27;9.07;;;;;;;;;;2107093;28;20044;-41
2022/11/01 03:41:17;;;;;;;18.77;8.88;;;;;;;;;;2107025;28;20520;-41
2022/11/01 03:42:20;;;;;;;16.33;9.48;;;;;;;;;;2107068;28;20056;-41
2022/11/01 03:43:22;;;;;;;22.35;8.73;;;;;;;;;;2106999;28;20061;-41
2022/11/01 03:44:24;;;;;;;21.17;8.68;;;;;;;;;;2106980;28;20444;-41
2022/11/01 03:45:27;;;;;;;15.43;8.32;;;;;;;;;;2107184;28;20052;-41
2022/11/01 03:46:28;;;;;;;18.23;8.25;;;;;;;;;;2107248;28;20311;-44
2022/11/01 03:47:29;;;;;;;16.33;7.50;;;;;;;;;;2107023;28;20090;-43
2022/11/01 03:48:30;;;;;;;18.48;9.63;;;;;;;;;;2107046;28;20044;-43
2022/11/01 03:49:31;;;;;;;16.92;7.05;;;;;;;;;;2106987;28;20485;-43
2022/11/01 03:50:33;;;;;;;17.92;7.90;;;;;;;;;;2107092;28;20078;-43
2022/11/01 03:51:34;;;;;;;17.23;8.02;;;;;;;;;;2106917;28;20070;-43
2022/11/01 03:52:35;;;;;;;18.33;8.40;;;;;;;;;;2107026;28;20052;-43
2022/11/01 03:53:36;;;;;;;18.63;8.88;;;;;;;;;;2107068;28;20321;-43
2022/11/01 03:54:37;;;;;;;17.85;9.45;;;;;;;;;;2107092;28;20055;-43
2022/11/01 03:55:39;;;;;;;16.85;7.25;;;;;;;;;;2106991;28;20048;-43
2022/11/01 03:56:40;;;;;;;16.17;7.63;;;;;;;;;;2106896;28;20504;-44
2022/11/01 03:57:41;;;;;;;23.08;9.55;;;;;;;;;;2107243;28;20123;-41
2022/11/01 03:58:43;;;;;;;17.02;7.45;;;;;;;;;;2107114;28;20040;-41
2022/11/01 03:59:44;;;;;;;13.35;7.82;;;;;;;;;;2107110;28;20046;-41
2022/11/01 04:00:46;;;;;;;19.45;8.40;;;;;;;;;;2106973;28;20040;-41
2022/11/01 04:01:47;;;;;;;16.55;8.05;;;;;;;;;;2107052;28;20548;-41
2022/11/01 04:02:48;;;;;;;23.58;8.73;;;;;;;;;;2106828;28;20145;-41
2022/11/01 04:03:49;;;;;;;21.00;9.90;;;;;;;;;;2107283;28;20044;-41
2022/11/01 04:04:50;;;;;;;16.75;8.15;;;;;;;;;;2106872;28;20044;-41
2022/11/01 04:05:52;;;;;;;17.95;8.32;;;;;;;;;;2106829;28;20052;-41
2022/11/01 04:06:53;;;;;;;18.58;10.60;;;;;;;;;;2106892;28;20044;-41
2022/11/01 04:07:54;;;;;;;22.13;8.20;;;;;;;;;;2106962;28;20059;-41
2022/11/01 04:08:55;;;;;;;19.33;7.95;;;;;;;;;;2106980;28;20097;-41
2022/11/01 04:09:56;;;;;;;20.70;10.90;;;;;;;;;;2107106;28;20109;-43
2022/11/01 04:10:58;;;;;;;15.57;7.80;;;;;;;;;;2106980;28;20051;-43
2022/11/01 04:11:59;;;;;;;21.42;9.75;;;;;;;;;;2107061;28;20071;-43
2022/11/01 04:13:00;;;;;;;22.08;9.27;;;;;;;;;;2106875;28;20044;-43
2022/11/01 04:20:42;;;;;;;25.83;10.68;;;;;;;;;;2106872;28;20047;-43
2022/11/01 04:21:44;;;;;;;23.08;10.30;;;;;;;;;;2106755;28;20405;-43
2022/11/01 04:22:45;;;;;;;25.42;10.30;;;;;;;;;;2106907;28;20067;-44
2022/11/01 04:23:46;;;;;;;22.13;11.20;;;;;;;;;;2106774;28;20043;-44
2022/11/01 04:24:47;;;;;;;18.08;9.75;;;;;;;;;;2106892;28;20040;-43
2022/11/01 04:25:48;;;;;;;21.73;11.05;;;;;;;;;;2106678;28;20047;-43
2022/11/01 04:26:50;;;;;;;22.38;10.88;;;;;;;;;;2107068;28;20101;-41
2022/11/01 04:27:50;;;;;;;21.25;11.68;;;;;;;;;;2106992;28;20049;-41
2022/11/01 04:28:57;;;;;;;30.70;14.25;;;;;;;;;;2106959;28;20052;-41
2022/11/01 04:29:58;;;;;;;31.52;17.25;;;;;;;;;;2106765;28;20048;-41
2022/11/01 04:30:59;;;;;;;23.33;11.20;;;;;;;;;;2106878;28;20048;-41
2022/11/01 04:32:01;;;;;;;98.90;40.83;;;;;;;;;;2106720;28;20401;-41
2022/11/01 04:33:03;;;;;;;64.97;29.15;;;;;;;;;;2107167;28;20052;-41
2022/11/01 04:34:04;;;;;;;86.97;34.63;;;;;;;;;;2106986;28;20055;-43
2022/11/01 04:35:06;;;;;;;30.08;13.73;;;;;;;;;;2106920;28;20119;-44
2022/11/01 04:36:12;;;;;;;52.50;25.45;;;;;;;;;;2106656;28;20075;-43
2022/11/01 04:37:14;;;;;;;53.77;25.80;;;;;;;;;;2106906;28;20083;-43
2022/11/01 04:38:15;;;;;;;30.80;13.30;;;;;;;;;;2106727;28;20485;-42
2022/11/01 04:39:16;;;;;;;26.90;13.52;;;;;;;;;;2106808;28;20048;-42
2022/11/01 04:40:17;;;;;;;23.65;12.23;;;;;;;;;;2106243;28;20067;-42
2022/11/01 04:41:19;;;;;;;23.05;11.35;;;;;;;;;;2106177;28;20055;-43
2022/11/01 04:42:19;;;;;;;22.42;11.43;;;;;;;;;;2106747;28;20048;-43
2022/11/01 04:43:22;;;;;;;23.85;11.07;;;;;;;;;;2106781;28;20054;-42
2022/11/01 04:44:23;;;;;;;20.33;10.30;;;;;;;;;;2106803;28;20055;-43
2022/11/01 04:45:24;;;;;;;21.90;11.57;;;;;;;;;;2106918;28;20048;-42
2022/11/01 04:46:27;;;;;;;17.70;8.23;;;;;;;;;;2106784;28;20570;-40
2022/11/01 04:47:29;;;;;;;22.05;8.40;;;;;;;;;;2106647;28;20044;-40
2022/11/01 04:48:29;;;;;;;18.20;8.32;;;;;;;;;;2106860;28;20048;-40
2022/11/01 04:49:31;;;;;;;17.95;8.95;;;;;;;;;;2106659;28;20079;-40
2022/11/01 04:50:32;;;;;;;20.48;8.80;;;;;;;;;;2106824;28;20044;-40
2022/11/01 04:51:33;;;;;;;22.15;10.48;;;;;;;;;;2106686;28;20055;-40
2022/11/01 04:52:35;;;;;;;15.90;8.05;;;;;;;;;;2106622;28;20051;-40
2022/11/01 04:53:36;;;;;;;20.95;10.25;;;;;;;;;;2106940;28;20040;-42
2022/11/01 04:54:37;;;;;;;17.40;8.15;;;;;;;;;;2106816;28;20048;-40
2022/11/01 04:55:38;;;;;;;19.15;8.82;;;;;;;;;;2106741;28;20441;-40
2022/11/01 04:56:39;;;;;;;23.10;10.45;;;;;;;;;;2107158;28;20044;-42
2022/11/01 04:57:40;;;;;;;16.40;8.90;;;;;;;;;;2106943;28;20055;-42
2022/11/01 04:58:42;;;;;;;21.88;8.65;;;;;;;;;;2107047;28;20063;-40
2022/11/01 04:59:47;;;;;;;20.33;10.55;;;;;;;;;;2106620;28;20533;-40
2022/11/01 05:00:48;;;;;;;16.48;8.52;;;;;;;;;;2106419;28;20511;-39
2022/11/01 05:01:49;;;;;;;21.02;9.40;;;;;;;;;;2106782;28;20044;-40
2022/11/01 05:02:50;;;;;;;19.98;10.57;;;;;;;;;;2106921;28;20511;-40
2022/11/01 05:03:52;;;;;;;17.02;8.52;;;;;;;;;;2106629;28;20097;-40
2022/11/01 05:04:53;;;;;;;19.83;10.25;;;;;;;;;;2106586;28;20048;-40
2022/11/01 05:05:54;;;;;;;19.97;8.77;;;;;;;;;;2106452;28;20123;-41
2022/11/01 05:06:55;;;;;;;19.25;9.05;;;;;;;;;;2106660;28;20048;-40
2022/11/01 05:08:00;;;;;;;17.03;10.73;;;;;;;;;;2106590;28;20094;-40
2022/11/01 05:09:06;;;;;;;22.42;8.85;;;;;;;;;;2114451;28;20559;-40
2022/11/01 05:10:08;;;;;;;20.80;10.47;;;;;;;;;;2114531;28;20047;-40
2022/11/01 05:11:09;;;;;;;22.77;10.82;;;;;;;;;;2114779;28;20074;-43
2022/11/01 05:12:10;;;;;;;29.90;14.27;;;;;;;;;;2114828;28;20085;-42
2022/11/01 05:13:12;;;;;;;37.00;18.95;;;;;;;;;;2114091;28;20488;-42
2022/11/01 05:14:13;;;;;;;29.48;14.10;;;;;;;;;;2113808;28;20043;-43
2022/11/01 05:15:14;;;;;;;36.58;14.73;;;;;;;;;;2114275;28;20492;-42
2022/11/01 05:16:16;;;;;;;36.50;17.47;;;;;;;;;;2114527;28;20047;-40
2022/11/01 05:17:21;;;;;;;33.95;16.05;;;;;;;;;;2114668;28;20382;-43
2022/11/01 05:18:22;;;;;;;32.60;15.10;;;;;;;;;;2114298;28;20049;-41
2022/11/01 05:19:23;;;;;;;33.03;15.50;;;;;;;;;;2114503;28;20043;-43
2022/11/01 05:20:25;;;;;;;33.10;16.88;;;;;;;;;;2114773;28;20055;-43
2022/11/01 05:21:25;;;;;;;33.90;13.93;;;;;;;;;;2114657;28;20096;-42
2022/11/01 05:22:27;;;;;;;33.03;13.60;;;;;;;;;;2114871;28;20553;-40
2022/11/01 05:23:28;;;;;;;33.10;15.68;;;;;;;;;;2114483;28;20044;-43
2022/11/01 05:24:29;;;;;;;22.17;9.93;;;;;;;;;;2114762;28;20055;-43
2022/11/01 05:25:30;;;;;;;26.08;11.25;;;;;;;;;;2114656;28;20553;-40
2022/11/01 05:26:37;;;;;;;24.60;12.43;;;;;;;;;;2114781;28;20075;-43
2022/11/01 05:27:38;;;;;;;21.48;11.35;;;;;;;;;;2114703;28;20051;-43
2022/11/01 05:28:39;;;;;;;27.10;13.98;;;;;;;;;;2114107;28;20472;-43
2022/11/01 05:29:40;;;;;;;23.58;10.27;;;;;;;;;;2114675;28;20048;-43
2022/11/01 05:30:41;;;;;;;23.27;10.43;;;;;;;;;;2114660;28;20131;-40
2022/11/01 05:31:42;;;;;;;25.58;12.10;;;;;;;;;;2114643;28;20069;-43
2022/11/01 05:32:44;;;;;;;35.25;14.38;;;;;;;;;;2114690;28;20043;-42
2022/11/01 05:33:44;;;;;;;32.22;14.90;;;;;;;;;;2114677;28;20039;-42
2022/11/01 05:34:48;;;;;;;28.10;12.18;;;;;;;;;;2114767;28;20047;-42
2022/11/01 05:35:49;;;;;;;33.35;15.73;;;;;;;;;;2114297;28;20484;-40
2022/11/01 05:36:50;;;;;;;32.23;14.30;;;;;;;;;;2114532;28;20052;-42
2022/11/01 05:37:51;;;;;;;33.63;17.10;;;;;;;;;;2114627;28;20198;-40
2022/11/01 05:38:55;;;;;;;34.80;14.82;;;;;;;;;;2114578;28;20051;-40
2022/11/01 05:39:56;;;;;;;33.20;15.82;;;;;;;;;;2114655;28;20050;-40
2022/11/01 05:41:00;;;;;;;28.38;12.23;;;;;;;;;;2114516;28;20454;-40
2022/11/01 05:42:01;;;;;;;32.13;13.48;;;;;;;;;;2114500;28;20104;-40
2022/11/01 05:43:03;;;;;;;30.27;15.13;;;;;;;;;;2114525;28;20060;-42
2022/11/01 05:44:05;;;;;;;27.40;13.07;;;;;;;;;;2114570;28;20061;-40
2022/11/01 05:45:08;;;;;;;30.17;11.52;;;;;;;;;;2114689;28;20047;-40
2022/11/01 05:46:09;;;;;;;33.30;13.18;;;;;;;;;;2114501;28;20055;-44
2022/11/01 05:47:10;;;;;;;32.43;16.07;;;;;;;;;;2114684;28;20044;-43
2022/11/01 05:48:17;;;;;;;28.60;12.57;;;;;;;;;;2114492;28;20058;-43
2022/11/01 05:49:18;;;;;;;26.57;11.63;;;;;;;;;;2114768;28;20067;-42
2022/11/01 05:50:19;;;;;;;32.42;15.70;;;;;;;;;;2114600;28;20050;-43
2022/11/01 05:51:20;;;;;;;34.03;12.10;;;;;;;;;;2114409;28;20134;-40
2022/11/01 05:52:21;;;;;;;21.98;10.65;;;;;;;;;;2114385;28;20048;-42
2022/11/01 05:53:22;;;;;;;26.52;14.52;;;;;;;;;;2114534;28;20051;-43
2022/11/01 05:54:24;;;;;;;34.13;13.35;;;;;;;;;;2114632;28;20056;-43
2022/11/01 05:55:25;;;;;;;25.30;14.68;;;;;;;;;;2114454;28;20397;-43
2022/11/01 05:56:27;;;;;;;27.27;11.52;;;;;;;;;;2114658;28;20066;-40
2022/11/01 05:57:28;;;;;;;;;;;;;;;;;;2114816;28;20140;-40
2022/11/01 05:58:34;;;;;;;24.67;11.80;;;;;;;;;;2114500;28;20379;-40
2022/11/01 05:59:35;;;;;;;27.77;14.43;;;;;;;;;;2114407;28;20492;-43
2022/11/01 06:00:36;;;;;;;25.50;12.73;;;;;;;;;;2114473;28;20047;-45
2022/11/01 06:01:37;;;;;;;28.15;14.48;;;;;;;;;;2114433;28;20074;-41
2022/11/01 06:02:38;;;;;;;27.23;11.93;;;;;;;;;;2114423;28;20079;-41
2022/11/01 06:03:39;;;;;;;29.45;12.35;;;;;;;;;;2114274;28;20043;-41
2022/11/01 06:04:40;;;;;;;23.25;9.73;;;;;;;;;;2114347;28;20040;-45
2022/11/01 06:05:41;;;;;;;30.30;11.38;;;;;;;;;;2114428;28;20062;-42
2022/11/01 06:06:42;;;;;;;22.50;11.93;;;;;;;;;;2113998;28;20042;-44
2022/11/01 06:07:43;;;;;;;22.45;11.02;;;;;;;;;;2114476;28;20047;-44
2022/11/01 06:08:44;;;;;;;22.65;9.80;;;;;;;;;;2114405;28;20105;-42
2022/11/01 06:09:46;;;;;;;22.25;11.05;;;;;;;;;;2114415;28;20051;-45
2022/11/01 06:10:47;;;;;;;22.80;11.20;;;;;;;;;;2114343;28;20044;-45
2022/11/01 06:11:48;;;;;;;20.00;9.70;;;;;;;;;;2114565;28;20051;-42
2022/11/01 06:12:49;;;;;;;28.02;9.63;;;;;;;;;;2114313;28;20043;-42
2022/11/01 06:13:51;;;;;;;20.65;9.48;;;;;;;;;;2114294;28;20050;-45
2022/11/01 06:14:53;;;;;;;21.02;9.50;;;;;;;;;;2114347;28;20048;-44
2022/11/01 06:15:56;;;;;;;16.35;9.07;;;;;;;;;;2114351;28;20040;-44